Time;durP1;ratioP1;P1;durP2;ratioP2;P2;SDS_P1;SDS_P2;PMS_P1;PMS_P2;Temp;Humidity;BMP_temperature;BMP_pressure;BME280_temperature;BME280_humidity;BME280_pressure;Samples;Min_cycle;Max_cycle;Signal;HPM_P1;HPM_P2
2022/11/05 00:09:29;;;;;;;13.52;6.32;;;;;;;12.57;76.80;100644.22;5028503;28;20079;-75
2022/11/05 00:17:25;;;;;;;16.33;6.65;;;;;;;12.75;75.52;100661.50;5023758;28;20098;-76
2022/11/05 00:19:51;;;;;;;13.52;5.97;;;;;;;12.51;76.66;100666.50;5028488;28;20056;-75
2022/11/05 00:25:15;;;;;;;12.30;5.97;;;;;;;12.28;76.99;100668.81;5026884;28;20056;-75
2022/11/05 00:27:43;;;;;;;14.32;5.80;;;;;;;12.29;77.31;100666.09;5017791;28;20055;-76
2022/11/05 00:30:13;;;;;;;9.20;5.55;;;;;;;12.09;77.88;100661.16;5026638;28;20052;-75
2022/11/05 00:32:40;;;;;;;12.88;6.32;;;;;;;11.99;78.57;100674.00;5025976;28;20455;-75
2022/11/05 00:35:07;;;;;;;13.27;5.55;;;;;;;11.88;78.68;100670.31;5028117;28;20046;-75
2022/11/05 00:37:34;;;;;;;10.82;5.30;;;;;;;12.19;78.01;100686.00;5027425;28;20040;-74
2022/11/05 00:40:00;;;;;;;16.52;5.38;;;;;;;12.10;77.69;100689.16;5026234;28;20072;-74
2022/11/05 00:45:12;;;;;;;13.02;6.22;;;;;;;12.09;77.88;100692.72;5025532;28;20055;-74
2022/11/05 00:50:24;;;;;;;12.82;4.75;;;;;;;11.92;78.53;100695.47;5027786;28;20094;-74
2022/11/05 00:52:58;;;;;;;9.43;4.90;;;;;;;12.00;77.99;100693.25;5018128;28;20040;-74
2022/11/05 00:55:28;;;;;;;9.73;4.90;;;;;;;11.96;77.89;100703.09;5026714;28;20053;-74
2022/11/05 00:57:55;;;;;;;8.15;4.82;;;;;;;12.16;76.68;100709.81;5016762;28;20045;-74
2022/11/05 01:00:24;;;;;;;9.77;4.63;;;;;;;12.02;76.90;100712.41;5027643;28;20045;-74
2022/11/05 01:02:51;;;;;;;7.97;4.75;;;;;;;11.64;78.69;100710.16;5035366;28;20060;-75
2022/11/05 01:05:17;;;;;;;8.07;5.25;;;;;;;11.62;78.63;100711.19;5036061;28;20045;-75
2022/11/05 01:07:44;;;;;;;8.80;4.32;;;;;;;11.69;78.50;100716.00;5028875;28;20060;-74
2022/11/05 01:10:10;;;;;;;12.27;4.40;;;;;;;11.43;79.41;100721.00;5026802;28;20501;-74
2022/11/05 01:12:37;;;;;;;9.82;4.13;;;;;;;11.32;79.66;100728.63;5017920;28;20064;-75
2022/11/05 01:15:05;;;;;;;7.97;4.15;;;;;;;11.36;80.10;100723.13;5027863;28;20688;-74
2022/11/05 01:17:33;;;;;;;9.43;4.00;;;;;;;11.58;78.96;100731.50;5026419;28;20136;-76
2022/11/05 01:19:59;;;;;;;11.90;4.47;;;;;;;10.99;80.67;100729.53;5017412;28;20041;-76
2022/11/05 01:22:26;;;;;;;8.95;4.50;;;;;;;11.40;79.82;100742.19;5027825;28;20045;-75
2022/11/05 01:24:52;;;;;;;11.45;4.18;;;;;;;11.50;79.26;100736.34;5027108;28;20041;-75
2022/11/05 01:27:19;;;;;;;11.65;4.45;;;;;;;11.46;78.83;100739.22;5018171;28;20045;-75
2022/11/05 01:29:45;;;;;;;9.23;3.60;;;;;;;11.45;78.92;100746.28;5026599;28;20048;-76
2022/11/05 01:32:12;;;;;;;9.82;3.50;;;;;;;11.49;79.41;100741.69;5025656;28;20421;-75
2022/11/05 01:34:39;;;;;;;5.85;3.67;;;;;;;11.27;80.16;100747.25;5021888;28;20045;-76
2022/11/05 01:37:06;;;;;;;9.45;3.42;;;;;;;11.52;78.90;100738.88;5031725;28;20044;-76
2022/11/05 01:39:32;;;;;;;8.82;3.67;;;;;;;11.46;78.81;100734.81;5029747;28;20049;-75
2022/11/05 01:41:59;;;;;;;9.07;4.05;;;;;;;11.27;79.45;100741.19;5026183;28;20540;-75
2022/11/05 01:44:53;;;;;;;9.13;3.80;;;;;;;11.65;77.46;100742.50;5031854;28;20042;-75
2022/11/05 01:47:28;;;;;;;13.77;4.15;;;;;;;11.65;76.73;100743.38;5017564;28;20123;-75
2022/11/05 01:50:00;;;;;;;8.50;3.85;;;;;;;11.28;77.69;100743.69;5010331;28;20057;-76
2022/11/05 01:52:29;;;;;;;12.87;3.90;;;;;;;11.34;77.56;100753.03;5017948;28;20045;-76
2022/11/05 01:54:56;;;;;;;9.82;4.63;;;;;;;11.08;78.22;100754.44;5031754;28;20689;-76
2022/11/05 01:57:23;;;;;;;5.82;3.03;;;;;;;11.28;77.04;100753.34;5030374;28;20057;-76
2022/11/05 01:59:54;;;;;;;8.40;3.50;;;;;;;11.19;76.57;100755.56;5027490;28;20053;-76
2022/11/05 02:02:23;;;;;;;9.73;4.25;;;;;;;11.00;77.98;100762.72;5039993;28;20044;-76
2022/11/05 02:04:54;;;;;;;8.15;4.10;;;;;;;11.22;76.81;100760.63;5039813;28;20041;-76
2022/11/05 02:07:25;;;;;;;9.40;3.80;;;;;;;10.93;77.40;100769.22;5009053;28;20459;-76
2022/11/05 02:09:57;;;;;;;10.10;3.95;;;;;;;10.92;77.50;100771.91;5030419;28;20049;-75
2022/11/05 02:12:24;;;;;;;7.72;4.00;;;;;;;10.91;77.51;100764.97;5022339;28;20049;-75
2022/11/05 02:14:51;;;;;;;9.80;4.00;;;;;;;10.87;77.45;100774.75;5019906;28;20425;-76
2022/11/05 02:17:26;;;;;;;13.32;4.95;;;;;;;10.93;77.09;100768.38;5029543;28;20045;-75
2022/11/05 02:20:16;;;;;;;9.32;4.90;;;;;;;10.84;77.26;100771.47;5001222;28;20419;-75
2022/11/05 02:23:16;;;;;;;9.77;4.35;;;;;;;10.59;77.91;100777.13;5015327;28;20061;-75
2022/11/05 02:26:07;;;;;;;9.95;4.97;;;;;;;10.54;77.83;100789.63;5029979;28;20041;-76
2022/11/05 02:28:52;;;;;;;10.98;4.88;;;;;;;10.43;78.01;100782.28;5031807;28;20049;-76
2022/11/05 02:31:28;;;;;;;14.18;4.63;;;;;;;10.48;77.18;100793.41;5031240;28;20056;-77
2022/11/05 02:34:03;;;;;;;9.73;4.03;;;;;;;10.65;77.12;100784.66;5030657;28;20049;-77
2022/11/05 02:36:43;;;;;;;12.00;4.97;;;;;;;10.47;77.69;100778.59;5031371;28;20076;-77
2022/11/05 02:39:26;;;;;;;12.40;4.93;;;;;;;10.35;77.64;100792.31;5027763;28;20048;-76
2022/11/05 02:42:05;;;;;;;12.27;5.18;;;;;;;10.35;77.66;100791.50;5012897;28;20041;-76
2022/11/05 02:44:40;;;;;;;9.48;4.53;;;;;;;10.37;78.84;100789.63;5029587;28;20041;-76
2022/11/05 02:47:20;;;;;;;12.88;4.10;;;;;;;10.27;78.41;100795.31;5019331;28;20048;-75
2022/11/05 02:49:54;;;;;;;13.57;4.78;;;;;;;10.21;78.21;100805.25;5027899;28;20064;-76
2022/11/05 02:52:28;;;;;;;9.55;4.65;;;;;;;10.12;78.60;100803.06;5025105;28;20064;-76
2022/11/05 02:54:59;;;;;;;13.20;4.80;;;;;;;10.26;78.21;100798.03;5029035;28;20045;-77
2022/11/05 02:57:29;;;;;;;17.75;5.80;;;;;;;10.13;77.99;100799.50;5030263;28;20056;-77
2022/11/05 03:00:04;;;;;;;14.02;5.43;;;;;;;10.11;77.90;100798.75;5020146;28;20409;-77
2022/11/05 03:02:32;;;;;;;12.73;5.40;;;;;;;10.14;78.08;100803.81;5038594;28;20047;-76
2022/11/05 03:05:00;;;;;;;13.05;5.85;;;;;;;10.16;77.67;100800.22;5019213;28;20045;-77
2022/11/05 03:07:36;;;;;;;15.25;6.03;;;;;;;9.96;79.28;100807.34;5031009;28;20067;-77
2022/11/05 03:10:27;;;;;;;12.15;5.82;;;;;;;10.11;79.50;100812.69;5030267;28;20036;-76
2022/11/05 03:13:04;;;;;;;14.93;6.03;;;;;;;10.16;78.93;100820.38;5018880;28;20041;-76
2022/11/05 03:15:47;;;;;;;15.43;6.22;;;;;;;10.05;79.46;100826.06;5015189;28;20041;-76
2022/11/05 03:18:24;;;;;;;15.05;5.95;;;;;;;10.15;78.68;100826.53;5028223;28;20045;-76
2022/11/05 03:20:59;;;;;;;16.05;6.40;;;;;;;10.06;78.59;100826.91;5011480;28;20053;-77
2022/11/05 03:23:31;;;;;;;19.55;6.70;;;;;;;9.84;80.93;100828.88;5028361;28;20048;-76
2022/11/05 03:26:04;;;;;;;11.33;6.27;;;;;;;10.01;80.14;100827.16;5021551;28;20492;-75
2022/11/05 03:28:34;;;;;;;17.10;6.65;;;;;;;10.06;80.29;100822.53;5029631;28;20284;-75
2022/11/05 03:31:02;;;;;;;14.40;6.25;;;;;;;10.03;80.84;100832.31;5029421;28;20317;-75
2022/11/05 03:33:35;;;;;;;24.77;7.65;;;;;;;10.12;80.17;100837.13;5018247;28;20052;-75
2022/11/05 03:36:03;;;;;;;;;;;;;;;10.24;79.08;100832.16;5028457;28;20053;-75
2022/11/05 03:38:34;;;;;;;16.92;6.28;;;;;;;10.10;79.57;100834.56;5028470;28;19921;-76
2022/11/05 03:41:05;;;;;;;15.40;6.28;;;;;;;10.25;79.00;100838.25;5028122;28;20599;-76
2022/11/05 03:43:36;;;;;;;13.30;6.72;;;;;;;10.25;79.14;100833.84;5028331;28;20044;-76
2022/11/05 03:46:07;;;;;;;18.67;7.13;;;;;;;10.25;79.16;100833.00;5018991;28;20217;-75
2022/11/05 03:48:41;;;;;;;13.82;6.60;;;;;;;10.12;79.34;100837.13;5028358;28;20049;-76
2022/11/05 03:51:13;;;;;;;17.33;7.05;;;;;;;9.99;80.61;100838.63;5028621;28;20049;-76
2022/11/05 03:53:44;;;;;;;16.77;6.70;;;;;;;9.62;82.04;100837.72;5034733;28;20045;-76
2022/11/05 03:56:18;;;;;;;13.20;6.40;;;;;;;9.47;83.99;100842.81;5024953;28;20053;-76
2022/11/05 03:58:45;;;;;;;13.95;6.75;;;;;;;9.86;82.46;100846.22;5033349;28;20045;-75
2022/11/05 04:01:12;;;;;;;19.73;6.60;;;;;;;9.88;81.81;100846.13;5051330;28;20048;-75
2022/11/05 04:03:40;;;;;;;15.02;7.15;;;;;;;10.13;80.71;100854.53;5052791;28;20499;-75
2022/11/05 04:14:39;;;;;;;16.23;6.15;;;;;;;10.15;79.79;100873.69;4998337;28;20100;-75
2022/11/05 04:17:08;;;;;;;16.48;6.43;;;;;;;10.13;79.75;100875.47;5034992;28;20029;-75
2022/11/05 04:25:06;;;;;;;16.48;6.63;;;;;;;10.10;79.13;100880.88;5033898;28;20116;-75
2022/11/05 04:27:33;;;;;;;16.75;6.15;;;;;;;9.90;80.18;100878.34;5033957;28;20047;-75
2022/11/05 04:32:54;;;;;;;15.52;6.60;;;;;;;9.94;79.29;100883.34;5026716;28;20535;-75
2022/11/05 04:35:22;;;;;;;11.45;5.60;;;;;;;9.70;79.62;100890.59;5016532;28;20505;-75
2022/11/05 04:37:48;;;;;;;12.23;5.80;;;;;;;9.80;79.06;100891.00;5028016;28;20067;-75
2022/11/05 04:40:15;;;;;;;20.20;5.55;;;;;;;9.72;78.73;100887.88;5026366;28;20041;-75
2022/11/05 04:42:41;;;;;;;14.77;6.00;;;;;;;9.25;80.64;100884.78;5017704;28;20052;-75
2022/11/05 04:45:08;;;;;;;16.92;7.55;;;;;;;8.76;84.06;100886.88;5031045;28;20044;-75
2022/11/05 04:47:34;;;;;;;15.75;6.57;;;;;;;8.72;84.87;100887.91;5033218;28;20045;-75
2022/11/05 04:50:01;;;;;;;16.40;5.63;;;;;;;8.77;84.43;100899.06;5031766;28;20409;-75
2022/11/05 04:52:28;;;;;;;26.90;6.65;;;;;;;9.05;83.19;100893.53;5047038;28;20045;-75
2022/11/05 04:54:55;;;;;;;13.55;5.97;;;;;;;9.04;82.44;100894.44;5049579;28;20041;-75
2022/11/05 04:57:21;;;;;;;15.82;6.30;;;;;;;8.66;83.82;100896.03;5041800;28;20571;-75
2022/11/05 04:59:48;;;;;;;13.98;6.55;;;;;;;8.64;83.88;100903.09;5041761;28;20049;-75
2022/11/05 05:02:14;;;;;;;17.77;6.78;;;;;;;8.70;83.35;100905.44;5052053;28;20029;-75
2022/11/05 05:04:41;;;;;;;15.07;5.57;;;;;;;8.65;83.26;100911.75;5052215;28;20051;-74
2022/11/05 05:07:07;;;;;;;13.07;5.43;;;;;;;8.87;82.71;100907.34;5053661;28;20055;-74
2022/11/05 05:09:35;;;;;;;17.20;6.20;;;;;;;9.17;79.57;100907.81;5053803;28;20037;-74
2022/11/05 05:12:02;;;;;;;16.60;5.82;;;;;;;9.17;78.45;100910.44;5042497;28;20041;-74
2022/11/05 05:14:28;;;;;;;22.20;6.15;;;;;;;9.23;78.23;100908.41;5039042;28;20045;-75
2022/11/05 05:16:55;;;;;;;15.32;6.78;;;;;;;8.95;80.07;100913.09;5037546;28;20060;-74
2022/11/05 05:19:21;;;;;;;17.85;6.97;;;;;;;8.75;81.81;100918.34;5033245;28;20051;-74
2022/11/05 05:21:47;;;;;;;14.70;6.07;;;;;;;8.69;81.89;100914.19;5039765;28;20042;-74
2022/11/05 05:24:15;;;;;;;14.80;5.88;;;;;;;8.74;81.43;100922.72;5037906;28;20519;-74
2022/11/05 05:26:45;;;;;;;13.75;6.00;;;;;;;8.57;82.11;100927.75;5035368;28;20103;-74
2022/11/05 05:29:12;;;;;;;14.88;6.28;;;;;;;8.69;81.96;100924.66;5037988;28;20055;-74
2022/11/05 05:31:39;;;;;;;14.57;5.90;;;;;;;8.83;82.04;100936.31;5037942;28;20496;-74
2022/11/05 05:34:06;;;;;;;21.55;6.85;;;;;;;8.95;81.78;100939.25;5027896;28;20106;-74
2022/11/05 05:36:33;;;;;;;16.75;5.95;;;;;;;9.17;80.93;100939.22;5037992;28;20052;-74
2022/11/05 05:38:59;;;;;;;18.23;7.60;;;;;;;9.12;80.91;100947.28;5039702;28;20041;-73
2022/11/05 05:41:26;;;;;;;16.88;6.28;;;;;;;9.17;81.22;100947.06;5030765;28;20451;-73
2022/11/05 05:43:54;;;;;;;23.23;6.78;;;;;;;8.88;82.11;100945.66;5037667;28;20045;-73
2022/11/05 05:46:20;;;;;;;17.00;6.68;;;;;;;8.97;82.04;100949.69;5035011;28;20408;-74
2022/11/05 05:48:49;;;;;;;23.48;6.88;;;;;;;9.06;81.96;100951.88;5027700;28;20045;-73
2022/11/05 05:51:15;;;;;;;16.35;6.82;;;;;;;9.14;81.75;100966.34;5039002;28;20202;-73
2022/11/05 05:53:42;;;;;;;17.27;7.20;;;;;;;9.08;81.86;100965.78;5037126;28;20088;-73
2022/11/05 05:56:08;;;;;;;14.05;6.07;;;;;;;9.10;80.89;100967.41;5028888;28;20056;-73
2022/11/05 05:58:37;;;;;;;16.58;6.07;;;;;;;9.11;80.52;100960.41;5038681;28;20048;-73
2022/11/05 06:01:07;;;;;;;16.98;7.45;;;;;;;8.62;83.63;100961.56;5045394;28;20269;-73
2022/11/05 06:03:34;;;;;;;15.80;6.32;;;;;;;8.46;82.91;100960.47;5034831;28;20049;-73
2022/11/05 06:06:01;;;;;;;16.65;6.32;;;;;;;8.46;84.34;100966.53;5033137;28;20045;-73
2022/11/05 06:08:29;;;;;;;19.08;8.75;;;;;;;8.77;82.14;100966.16;5031600;28;20087;-73
2022/11/05 06:10:55;;;;;;;16.48;7.10;;;;;;;8.86;81.44;100972.81;5023950;28;20657;-73
2022/11/05 06:13:22;;;;;;;18.38;8.32;;;;;;;8.63;81.58;100966.75;5037236;28;20053;-73
2022/11/05 06:15:48;;;;;;;23.48;9.98;;;;;;;8.42;82.50;100969.34;5034644;28;20577;-73
2022/11/05 06:18:16;;;;;;;22.33;7.50;;;;;;;8.43;81.73;100977.13;5023873;28;20539;-72
2022/11/05 06:20:43;;;;;;;15.20;6.03;;;;;;;8.14;81.98;100979.97;5035389;28;20095;-72
2022/11/05 06:23:09;;;;;;;16.92;5.97;;;;;;;8.05;82.33;100980.31;5035246;28;20045;-72
2022/11/05 06:25:36;;;;;;;12.27;5.70;;;;;;;7.80;82.72;100986.44;5025742;28;20405;-72
2022/11/05 06:28:02;;;;;;;12.88;6.28;;;;;;;7.63;82.83;100991.41;5036098;28;20049;-73
2022/11/05 06:30:29;;;;;;;17.48;6.43;;;;;;;7.53;83.98;100995.25;5036037;28;20056;-72
2022/11/05 06:32:55;;;;;;;13.48;6.35;;;;;;;7.77;82.90;101004.81;5026337;28;20464;-72
2022/11/05 06:35:23;;;;;;;11.82;6.03;;;;;;;7.74;82.31;100998.84;5036300;28;20699;-72
2022/11/05 06:37:49;;;;;;;16.30;7.18;;;;;;;7.47;82.20;101008.50;5033564;28;20508;-72
2022/11/05 06:40:16;;;;;;;13.73;6.18;;;;;;;7.50;81.92;101013.63;5020577;28;20148;-73
2022/11/05 06:42:42;;;;;;;12.80;7.10;;;;;;;7.53;81.52;101012.69;5031444;28;20056;-73
2022/11/05 06:45:09;;;;;;;17.98;7.43;;;;;;;7.19;82.25;101013.81;5021597;28;20068;-73
2022/11/05 06:47:36;;;;;;;18.15;8.32;;;;;;;7.49;81.78;101016.28;5020863;28;20052;-73
2022/11/05 06:50:02;;;;;;;18.63;8.70;;;;;;;7.87;79.84;101020.16;5030514;28;20417;-73
2022/11/05 06:52:30;;;;;;;19.35;8.90;;;;;;;7.90;79.55;101023.53;5031221;28;20503;-72
2022/11/05 06:54:57;;;;;;;16.25;7.90;;;;;;;7.87;79.54;101033.22;5021020;28;20539;-72
2022/11/05 06:57:23;;;;;;;14.13;7.13;;;;;;;8.17;77.86;101032.09;5032463;28;20048;-73
2022/11/05 06:59:50;;;;;;;18.40;7.38;;;;;;;7.84;80.94;101040.25;5030023;28;20060;-72
2022/11/05 07:02:17;;;;;;;20.83;8.07;;;;;;;7.77;82.71;101054.41;5028884;28;20045;-72
2022/11/05 07:04:43;;;;;;;24.67;8.07;;;;;;;7.87;83.48;101043.66;5049580;28;20461;-72
2022/11/05 07:07:10;;;;;;;12.80;6.88;;;;;;;8.15;83.48;101057.41;5029987;28;20053;-72
2022/11/05 07:09:41;;;;;;;18.33;7.40;;;;;;;8.22;82.69;101053.66;5029799;28;20067;-73
2022/11/05 07:12:07;;;;;;;15.23;7.35;;;;;;;8.42;81.46;101053.81;5030517;28;20049;-73
2022/11/05 07:14:34;;;;;;;19.10;7.68;;;;;;;8.31;82.76;101056.81;5028979;28;20080;-73
2022/11/05 07:17:00;;;;;;;17.23;7.60;;;;;;;8.23;84.55;101058.00;5019493;28;20041;-73
2022/11/05 07:19:27;;;;;;;17.30;7.50;;;;;;;8.61;84.58;101057.41;5029831;28;20417;-74
2022/11/05 07:21:53;;;;;;;16.65;7.03;;;;;;;9.30;81.41;101063.38;5028818;28;20512;-74
2022/11/05 07:24:19;;;;;;;19.30;7.40;;;;;;;9.20;82.54;101069.91;5023588;28;20041;-74
2022/11/05 07:26:47;;;;;;;16.40;7.20;;;;;;;9.40;82.09;101069.06;5029860;28;20053;-74
2022/11/05 07:29:14;;;;;;;16.40;6.32;;;;;;;9.88;80.60;101066.13;5027653;28;20051;-74
2022/11/05 07:31:40;;;;;;;16.75;6.38;;;;;;;10.96;77.53;101070.78;5024041;28;20520;-73
2022/11/05 07:34:07;;;;;;;12.07;5.68;;;;;;;11.71;74.47;101074.03;5029209;28;20049;-73
2022/11/05 07:36:33;;;;;;;14.20;5.50;;;;;;;12.41;72.38;101065.09;5027936;28;20047;-73
2022/11/05 07:38:59;;;;;;;17.20;6.57;;;;;;;13.13;70.52;101073.34;5028197;28;20059;-73
2022/11/05 07:41:26;;;;;;;10.82;5.30;;;;;;;13.61;68.39;101074.06;5024299;28;20037;-73
2022/11/05 07:43:54;;;;;;;10.82;4.95;;;;;;;13.58;68.47;101071.63;5028857;28;20136;-72
2022/11/05 07:46:20;;;;;;;13.40;5.40;;;;;;;13.93;65.70;101087.97;5029224;28;20041;-73
2022/11/05 07:48:47;;;;;;;9.40;4.70;;;;;;;14.47;64.56;101094.34;5023123;28;20060;-73
2022/11/05 07:51:13;;;;;;;16.50;5.50;;;;;;;14.79;63.13;101081.75;5034055;28;20041;-73
2022/11/05 07:53:40;;;;;;;11.10;5.03;;;;;;;14.88;61.50;101083.81;5028355;28;20041;-72
2022/11/05 07:56:07;;;;;;;15.63;5.80;;;;;;;14.70;61.33;101093.75;5018232;28;20045;-74
2022/11/05 07:58:35;;;;;;;9.18;5.22;;;;;;;15.25;60.29;101084.91;5026605;28;20229;-74
2022/11/05 08:01:03;;;;;;;12.95;5.38;;;;;;;15.42;59.88;101090.78;5025207;28;20564;-73
2022/11/05 08:03:30;;;;;;;11.80;4.82;;;;;;;15.71;58.91;101088.88;5021917;28;20050;-74
2022/11/05 08:05:56;;;;;;;14.73;4.95;;;;;;;15.57;58.35;101097.72;5027671;28;20060;-74
2022/11/05 08:08:22;;;;;;;13.10;5.30;;;;;;;15.72;59.37;101098.50;5028285;28;20048;-74
2022/11/05 08:10:49;;;;;;;10.50;4.57;;;;;;;15.17;59.85;101090.69;5014968;28;20139;-74
2022/11/05 08:13:16;;;;;;;15.52;4.45;;;;;;;15.44;60.21;101106.56;5023080;28;20048;-73
2022/11/05 08:15:42;;;;;;;10.52;4.70;;;;;;;15.68;58.82;101110.22;5026567;28;20056;-74
2022/11/05 08:18:13;;;;;;;7.25;4.28;;;;;;;16.42;56.48;101105.06;5015771;28;20505;-74
2022/11/05 08:20:40;;;;;;;12.82;4.20;;;;;;;16.82;54.67;101104.91;5025913;28;20465;-74
2022/11/05 08:23:07;;;;;;;11.32;4.18;;;;;;;17.13;53.31;101114.16;5026523;28;20045;-75
2022/11/05 08:25:34;;;;;;;10.02;4.28;;;;;;;17.42;53.11;101110.22;5025496;28;20046;-66
2022/11/05 08:28:02;;;;;;;12.77;4.43;;;;;;;17.22;53.30;101118.81;5026644;28;20040;-66
2022/11/05 08:30:29;;;;;;;13.35;4.50;;;;;;;17.89;51.26;101111.97;5025568;28;20048;-66
2022/11/05 08:32:57;;;;;;;12.60;4.05;;;;;;;18.15;50.29;101118.78;5027765;28;20041;-66
2022/11/05 08:35:24;;;;;;;10.98;4.57;;;;;;;18.25;50.46;101125.06;5026797;28;20071;-66
2022/11/05 08:37:51;;;;;;;13.73;4.18;;;;;;;18.71;48.59;101130.31;5016318;28;20191;-66
2022/11/05 08:40:17;;;;;;;15.70;4.45;;;;;;;18.89;48.03;101120.84;5027520;28;20499;-66
2022/11/05 08:42:44;;;;;;;10.30;4.03;;;;;;;18.75;48.97;101122.94;5026157;28;20044;-66
2022/11/05 08:45:10;;;;;;;11.05;3.47;;;;;;;17.98;50.93;101130.69;5025464;28;20063;-66
2022/11/05 08:47:37;;;;;;;9.65;3.10;;;;;;;18.28;50.58;101131.94;5025444;28;20062;-66
2022/11/05 08:50:03;;;;;;;12.20;3.72;;;;;;;18.67;48.31;101126.19;5025574;28;20045;-66
2022/11/05 08:52:31;;;;;;;6.70;3.10;;;;;;;19.20;48.03;101135.19;5026729;28;20041;-66
2022/11/05 08:54:57;;;;;;;7.15;3.13;;;;;;;18.68;48.41;101129.69;5023890;28;20457;-66
2022/11/05 08:57:24;;;;;;;10.73;3.08;;;;;;;19.36;46.90;101130.28;5025845;28;20041;-66
2022/11/05 08:59:50;;;;;;;7.63;2.65;;;;;;;19.66;46.18;101144.75;5028464;28;20056;-66
2022/11/05 09:02:17;;;;;;;12.18;3.58;;;;;;;19.91;45.83;101139.03;5017185;28;20052;-66
2022/11/05 09:04:44;;;;;;;10.00;2.67;;;;;;;20.26;44.22;101142.19;5026208;28;20053;-68
2022/11/05 09:07:10;;;;;;;12.50;3.15;;;;;;;20.36;43.28;101144.97;5027720;28;20095;-68
2022/11/05 09:09:38;;;;;;;10.52;3.05;;;;;;;20.24;44.09;101154.81;5017128;28;20052;-68
2022/11/05 09:12:05;;;;;;;7.43;2.95;;;;;;;20.76;43.99;101145.84;5026384;28;20052;-67
2022/11/05 09:14:31;;;;;;;12.50;2.38;;;;;;;20.69;43.89;101154.53;5027226;28;20048;-67
2022/11/05 09:16:57;;;;;;;10.70;2.72;;;;;;;21.00;43.47;101153.50;5017786;28;20053;-67
2022/11/05 09:19:24;;;;;;;9.85;2.63;;;;;;;21.35;42.80;101148.56;5024927;28;20041;-67
2022/11/05 09:21:50;;;;;;;9.13;2.53;;;;;;;21.80;41.47;101158.69;5026396;28;20048;-67
2022/11/05 09:24:17;;;;;;;7.88;2.60;;;;;;;22.12;40.61;101159.25;5017852;28;20060;-67
2022/11/05 09:26:45;;;;;;;10.35;2.50;;;;;;;21.63;39.55;101170.91;5025272;28;20045;-67
2022/11/05 09:29:11;;;;;;;9.70;2.17;;;;;;;21.80;40.10;101180.06;5026003;28;20033;-67
2022/11/05 09:31:37;;;;;;;8.07;2.70;;;;;;;21.32;41.12;101170.16;5017038;28;20045;-67
2022/11/05 09:34:04;;;;;;;9.75;2.55;;;;;;;21.53;42.18;101177.22;5029185;28;20587;-67
2022/11/05 09:36:30;;;;;;;7.93;2.33;;;;;;;21.73;40.91;101189.56;5027929;28;20669;-67
2022/11/05 09:38:57;;;;;;;6.13;2.25;;;;;;;22.08;40.98;101184.56;5016668;28;20068;-67
2022/11/05 09:41:29;;;;;;;9.27;1.98;;;;;;;21.79;38.87;101184.53;5022916;28;20045;-67
2022/11/05 09:44:00;;;;;;;10.63;2.58;;;;;;;22.09;39.51;101196.94;5027555;28;20045;-68
2022/11/05 09:46:29;;;;;;;9.80;2.10;;;;;;;22.03;40.10;101194.81;5027615;28;20406;-68
2022/11/05 09:49:02;;;;;;;7.72;2.05;;;;;;;21.82;38.84;101197.59;5026687;28;20048;-68
2022/11/05 09:51:29;;;;;;;7.47;1.98;;;;;;;21.51;39.65;101195.16;5011672;28;20041;-68
2022/11/05 09:53:58;;;;;;;9.32;2.13;;;;;;;21.17;39.94;101208.88;5030446;28;20056;-68
2022/11/05 09:56:28;;;;;;;11.02;2.40;;;;;;;21.33;42.23;101205.69;5031101;28;20040;-68
2022/11/05 09:59:01;;;;;;;7.25;2.03;;;;;;;21.58;40.39;101202.47;5022236;28;20496;-68
2022/11/05 10:01:33;;;;;;;5.03;1.92;;;;;;;21.53;41.31;101203.91;5030789;28;20044;-68
2022/11/05 10:04:02;;;;;;;5.82;2.20;;;;;;;20.55;41.04;101216.13;5037053;28;20045;-68
2022/11/05 10:06:29;;;;;;;8.55;1.98;;;;;;;20.77;41.72;101221.28;5036138;28;20048;-68
2022/11/05 10:09:03;;;;;;;8.48;1.77;;;;;;;21.26;41.56;101213.38;5035921;28;20064;-68
2022/11/05 10:11:35;;;;;;;7.32;2.00;;;;;;;20.75;43.50;101217.94;5024852;28;20489;-68
2022/11/05 10:14:07;;;;;;;;;;;;;;;21.17;41.60;101214.22;5029226;28;20045;-68
2022/11/05 10:16:36;;;;;;;6.05;2.20;;;;;;;20.87;41.87;101220.38;5020523;28;19976;-68
2022/11/05 10:19:08;;;;;;;9.27;2.10;;;;;;;21.03;41.21;101217.19;5035311;28;20053;-68
2022/11/05 10:21:35;;;;;;;11.38;2.08;;;;;;;21.20;41.32;101213.09;5034279;28;20056;-68
2022/11/05 10:24:02;;;;;;;6.70;1.60;;;;;;;21.58;41.89;101212.34;5026861;28;20048;-68
2022/11/05 10:26:29;;;;;;;10.05;2.08;;;;;;;21.68;41.90;101218.53;5037756;28;20055;-68
2022/11/05 10:28:56;;;;;;;10.25;2.08;;;;;;;21.90;40.00;101214.75;5033922;28;20057;-68
2022/11/05 10:31:25;;;;;;;8.38;1.80;;;;;;;21.88;38.87;101222.06;5019348;28;20041;-68
2022/11/05 10:33:56;;;;;;;5.78;1.92;;;;;;;21.19;40.56;101228.25;5026775;28;20641;-68
2022/11/05 10:36:27;;;;;;;8.05;2.30;;;;;;;20.88;41.46;101229.19;5029627;28;20126;-68
2022/11/05 10:38:58;;;;;;;6.00;1.95;;;;;;;20.21;41.84;101226.13;5019195;28;20053;-68
2022/11/05 10:41:48;;;;;;;7.87;1.87;;;;;;;20.54;41.53;101223.31;5029048;28;20492;-68
2022/11/05 10:44:26;;;;;;;8.25;1.63;;;;;;;20.76;43.48;101238.28;5029607;28;20291;-69
2022/11/05 10:47:01;;;;;;;7.60;2.30;;;;;;;20.49;42.37;101235.31;5025117;28;20503;-69
2022/11/05 10:49:43;;;;;;;7.25;2.25;;;;;;;20.52;40.84;101229.72;5027822;28;20060;-69
2022/11/05 10:52:20;;;;;;;9.00;1.77;;;;;;;20.37;41.57;101229.19;5030134;28;20052;-69
2022/11/05 10:54:48;;;;;;;7.03;1.50;;;;;;;20.01;42.62;101222.47;5029413;28;20241;-69
2022/11/05 10:57:32;;;;;;;10.02;1.90;;;;;;;19.91;43.51;101217.06;5028616;28;20412;-69
2022/11/05 11:00:18;;;;;;;7.43;2.22;;;;;;;20.47;40.79;101227.47;5029214;28;20048;-69
2022/11/05 11:02:48;;;;;;;7.00;1.83;;;;;;;20.24;42.37;101225.88;5028680;28;20103;-68
2022/11/05 11:05:21;;;;;;;5.50;1.55;;;;;;;19.55;42.12;101220.06;5029965;28;20052;-68
2022/11/05 11:07:54;;;;;;;4.80;1.52;;;;;;;19.41;44.75;101221.22;5019169;28;20055;-68
2022/11/05 11:10:22;;;;;;;7.95;1.67;;;;;;;19.57;44.00;101218.16;5018205;28;20049;-68
2022/11/05 11:12:50;;;;;;;5.97;1.67;;;;;;;19.39;43.36;101220.47;5028937;28;20111;-68
2022/11/05 11:15:26;;;;;;;5.55;1.20;;;;;;;19.19;45.47;101218.56;5029302;28;20416;-68
2022/11/05 11:17:55;;;;;;;7.63;2.30;;;;;;;19.05;45.08;101223.28;5008897;28;20129;-68
2022/11/05 11:20:25;;;;;;;14.85;2.03;;;;;;;18.10;46.14;101224.44;5008450;28;20056;-69
2022/11/05 11:23:04;;;;;;;7.18;2.40;;;;;;;18.21;49.62;101229.78;4998588;28;20433;-69
2022/11/05 11:25:35;;;;;;;5.75;1.50;;;;;;;18.51;46.83;101225.75;5020708;28;20070;-68
2022/11/05 11:28:04;;;;;;;8.43;1.90;;;;;;;17.92;45.78;101231.13;5017761;28;20041;-68
2022/11/05 11:30:32;;;;;;;7.85;1.77;;;;;;;17.61;47.53;101234.34;5028500;28;20044;-68
2022/11/05 11:33:08;;;;;;;5.78;1.60;;;;;;;17.00;49.40;101233.41;5027316;28;20206;-68
2022/11/05 11:35:37;;;;;;;10.05;3.25;;;;;;;17.06;48.57;101237.44;5027941;28;20052;-68
2022/11/05 11:38:06;;;;;;;10.73;1.65;;;;;;;16.95;49.55;101233.75;5033314;28;20067;-68
2022/11/05 11:40:35;;;;;;;5.82;1.20;;;;;;;17.17;48.93;101233.06;5025376;28;20071;-68
2022/11/05 11:43:05;;;;;;;6.97;1.45;;;;;;;16.73;49.70;101232.72;5029116;28;20056;-68
2022/11/05 11:45:36;;;;;;;5.43;1.50;;;;;;;16.55;51.71;101232.97;5025692;28;20052;-68
2022/11/05 11:48:05;;;;;;;9.65;1.55;;;;;;;16.76;50.58;101236.00;5018394;28;20409;-68
2022/11/05 11:50:41;;;;;;;10.90;1.55;;;;;;;16.27;51.92;101230.50;5025708;28;20091;-68
2022/11/05 11:53:26;;;;;;;9.13;1.65;;;;;;;16.14;52.08;101231.44;5028031;28;20495;-68
2022/11/05 11:56:02;;;;;;;7.03;1.85;;;;;;;16.62;52.21;101227.31;5028296;28;20056;-68
2022/11/05 11:58:40;;;;;;;8.52;1.25;;;;;;;16.35;52.01;101214.97;5017598;28;20045;-68
2022/11/05 12:01:19;;;;;;;10.38;1.48;;;;;;;16.31;52.52;101223.22;5026987;28;20408;-68
2022/11/05 12:03:51;;;;;;;8.43;1.48;;;;;;;16.17;52.14;101226.81;5009598;28;20055;-68
2022/11/05 12:06:27;;;;;;;7.40;2.22;;;;;;;16.29;53.43;101214.53;5027656;28;20051;-68
2022/11/05 12:09:00;;;;;;;4.60;1.38;;;;;;;16.26;51.18;101212.13;5027259;28;20072;-68
2022/11/05 12:11:33;;;;;;;5.43;1.30;;;;;;;16.37;52.30;101212.22;5028046;28;20406;-68